الصفحة الرئيسية
METAR-TAF:

METAR-TAF

مطار :

مطار نواكشوط الدولي

نواكشوط, موريتانيا

دائرة عرض: 18-18-36N, خط طول: 015-58-11W, ارتفاع: 3 متر

مراقبة الطقس الحالي

تاريخ ووقت الإصدار 28 دقيقة قبل الساعة 22:00UTC
ريح 11 عقدة من الشمال الغربي
درجة الحرارة 18°درجة مئوية
الرطوبة 88%
ضغط 1013 hPa
الرؤية: 8000 متر

METAR: GQNO 232200Z 32011KT 8000 NSC 18/16 Q1013 NOSIG

زمن: 22:28 (22:28 UTC)

توقعات

تاريخ ووقت الإصدار 5ساعات و 28 دقيقة قبل الساعة 17:00UTC
التوقعات صالحة من23 الساعة 18 UTC إلى 24 الساعة 24 UTC
ريح 14 عقدة من الشمال الغربي
الرؤية: 7000 متر
غيوم قليلة على ارتفاع 2000 قدم
مؤقت
من 24 الساعة 03 UTC إلى 24 الساعة 08 UTC
غيوم مفككة على ارتفاع 1000 قدم

TAF: GQNO 231700Z 2318/2424 31014KT 7000 FEW020 TEMPO 2403/2408 BKN010

أرصاد الطقس والتوقعات من أكثر من 4000 مطار (تقارير الطقس للمطار METAR والتنبؤ بالطقس بالمطارTAF).

المحطات المتاحة هي النقط الصفراء والحمراء على الخريطة.

حرك المؤشر فوق النقطة لمعرفة اسم المحطة.

ثم انقر لمعرفة أرصاد وتوقعات الطقس.

لتغيير الخارطة: اضغط على الأزرار الخضراء مع رمز الصليب الأسود للتكبير. على الزر الأخضر مع شرطة للتصغير، أو على الأسهم الخضراء للخرائط المجاورة.


METAR-TAF: